FDB161 ESSA-EKCH
Flight info
| Callsign | FDB161 |
|---|---|
| Flight time | 0h 59m |
| Altitude | 32000 |
| Route | PETEV N872 ELPAX DCT TOKSI N872 ERNOV |
| Aircraft | B38M/M-SDE1FGHILORVWXY/HB1 |
Departure
| Time | 2026-05-04 18:35 |
|---|---|
| Airport | Stockholm-Arlanda Airport (ESSA) |
Arrival
| Time | 2026-05-04 19:34 |
|---|---|
| Airport | Copenhagen Kastrup Airport (EKCH) |
| Time | Latitude | Longitude | Altitude | Speed | Heading |
|---|---|---|---|---|---|
| 2026-05-04 17:58 | 59.64187 | 17.93322 | 111 ft | 0 kts | 270° |
| 2026-05-04 18:11 | 59.64187 | 17.93323 | 111 ft | 0 kts | 270° |
| 2026-05-04 18:18 | 59.64187 | 17.93326 | 111 ft | 2 kts | 270° |
| 2026-05-04 18:18 | 59.64187 | 17.93376 | 111 ft | 4 kts | 269° |
| 2026-05-04 18:18 | 59.64188 | 17.93429 | 111 ft | 4 kts | 266° |
| 2026-05-04 18:19 | 59.64204 | 17.93513 | 111 ft | 3 kts | 183° |
| 2026-05-04 18:19 | 59.64210 | 17.93513 | 111 ft | 0 kts | 180° |
| 2026-05-04 18:24 | 59.64195 | 17.93513 | 111 ft | 4 kts | 180° |
| 2026-05-04 18:24 | 59.64157 | 17.93513 | 110 ft | 7 kts | 180° |
| 2026-05-04 18:24 | 59.64103 | 17.93514 | 110 ft | 9 kts | 179° |
| 2026-05-04 18:25 | 59.64043 | 17.93514 | 108 ft | 6 kts | 181° |
| 2026-05-04 18:25 | 59.64002 | 17.93477 | 110 ft | 7 kts | 230° |
| 2026-05-04 18:25 | 59.63988 | 17.93365 | 108 ft | 10 kts | 272° |
| 2026-05-04 18:25 | 59.64008 | 17.93220 | 109 ft | 12 kts | 295° |
| 2026-05-04 18:26 | 59.64048 | 17.93064 | 108 ft | 13 kts | 297° |
| 2026-05-04 18:26 | 59.64094 | 17.92892 | 110 ft | 15 kts | 297° |
| 2026-05-04 18:26 | 59.64143 | 17.92709 | 112 ft | 16 kts | 297° |
| 2026-05-04 18:26 | 59.64193 | 17.92516 | 110 ft | 16 kts | 297° |
| 2026-05-04 18:27 | 59.64243 | 17.92328 | 116 ft | 15 kts | 297° |
| 2026-05-04 18:27 | 59.64290 | 17.92150 | 111 ft | 14 kts | 297° |
| 2026-05-04 18:27 | 59.64334 | 17.91982 | 111 ft | 12 kts | 298° |
| 2026-05-04 18:27 | 59.64389 | 17.91926 | 111 ft | 9 kts | 4° |
| 2026-05-04 18:28 | 59.64466 | 17.91950 | 110 ft | 13 kts | 11° |
| 2026-05-04 18:28 | 59.64567 | 17.91987 | 109 ft | 16 kts | 11° |
| 2026-05-04 18:28 | 59.64688 | 17.92031 | 107 ft | 19 kts | 10° |
| 2026-05-04 18:28 | 59.64831 | 17.92082 | 104 ft | 22 kts | 10° |
| 2026-05-04 18:29 | 59.64980 | 17.92137 | 106 ft | 19 kts | 11° |
| 2026-05-04 18:29 | 59.65103 | 17.92181 | 106 ft | 17 kts | 10° |
| 2026-05-04 18:29 | 59.65217 | 17.92223 | 106 ft | 16 kts | 10° |
| 2026-05-04 18:29 | 59.65333 | 17.92265 | 104 ft | 18 kts | 10° |
| 2026-05-04 18:30 | 59.65585 | 17.92356 | 104 ft | 19 kts | 10° |
| 2026-05-04 18:30 | 59.65707 | 17.92400 | 103 ft | 16 kts | 10° |
| 2026-05-04 18:30 | 59.65804 | 17.92435 | 105 ft | 11 kts | 10° |
| 2026-05-04 18:31 | 59.65854 | 17.92453 | 106 ft | 6 kts | 10° |
| 2026-05-04 18:31 | 59.65891 | 17.92441 | 105 ft | 5 kts | 323° |
| 2026-05-04 18:31 | 59.65905 | 17.92400 | 108 ft | 2 kts | 290° |
| 2026-05-04 18:31 | 59.65906 | 17.92388 | 108 ft | 0 kts | 288° |
| 2026-05-04 18:32 | 59.65906 | 17.92387 | 108 ft | 1 kts | 288° |
| 2026-05-04 18:32 | 59.65913 | 17.92337 | 109 ft | 4 kts | 282° |
| 2026-05-04 18:32 | 59.65920 | 17.92271 | 110 ft | 8 kts | 281° |
| 2026-05-04 18:32 | 59.65929 | 17.92183 | 112 ft | 6 kts | 280° |
| 2026-05-04 18:33 | 59.65913 | 17.92122 | 112 ft | 6 kts | 207° |
| 2026-05-04 18:33 | 59.65897 | 17.92111 | 114 ft | 0 kts | 195° |
| 2026-05-04 18:33 | 59.65896 | 17.92111 | 112 ft | 0 kts | 195° |
| 2026-05-04 18:33 | 59.65895 | 17.92110 | 113 ft | 2 kts | 195° |
| 2026-05-04 18:34 | 59.65771 | 17.92062 | 109 ft | 44 kts | 190° |
| 2026-05-04 18:34 | 59.65275 | 17.91884 | 105 ft | 99 kts | 190° |
| 2026-05-04 18:34 | 59.64433 | 17.91578 | 108 ft | 145 kts | 191° |
| 2026-05-04 18:34 | 59.63388 | 17.91171 | 475 ft | 152 kts | 193° |
| 2026-05-04 18:35 | 59.62339 | 17.90788 | 1013 ft | 157 kts | 193° |
| 2026-05-04 18:35 | 59.61302 | 17.89979 | 1384 ft | 169 kts | 228° |
| 2026-05-04 18:35 | 59.60628 | 17.88089 | 1952 ft | 170 kts | 240° |
| 2026-05-04 18:35 | 59.60040 | 17.86033 | 2405 ft | 179 kts | 240° |
| 2026-05-04 18:36 | 59.59385 | 17.83815 | 2821 ft | 190 kts | 239° |
| 2026-05-04 18:36 | 59.58684 | 17.81514 | 3168 ft | 206 kts | 243° |
| 2026-05-04 18:36 | 59.58005 | 17.78920 | 3581 ft | 220 kts | 243° |
| 2026-05-04 18:36 | 59.57275 | 17.76123 | 3939 ft | 237 kts | 243° |
| 2026-05-04 18:37 | 59.56371 | 17.73294 | 4422 ft | 251 kts | 230° |
| 2026-05-04 18:37 | 59.55180 | 17.70750 | 5156 ft | 253 kts | 228° |
| 2026-05-04 18:37 | 59.53960 | 17.68251 | 5941 ft | 253 kts | 228° |
| 2026-05-04 18:37 | 59.52725 | 17.65755 | 6706 ft | 255 kts | 228° |
| 2026-05-04 18:38 | 59.51486 | 17.63243 | 7445 ft | 257 kts | 228° |
| 2026-05-04 18:38 | 59.50236 | 17.60693 | 8151 ft | 260 kts | 229° |
| 2026-05-04 18:38 | 59.48973 | 17.58110 | 8876 ft | 263 kts | 229° |
| 2026-05-04 18:38 | 59.47701 | 17.55516 | 9593 ft | 264 kts | 229° |
| 2026-05-04 18:39 | 59.46414 | 17.52897 | 10208 ft | 270 kts | 229° |
| 2026-05-04 18:39 | 59.45080 | 17.50176 | 10593 ft | 283 kts | 229° |
| 2026-05-04 18:39 | 59.43677 | 17.47322 | 10924 ft | 297 kts | 229° |
| 2026-05-04 18:39 | 59.42205 | 17.44333 | 11238 ft | 312 kts | 229° |
| 2026-05-04 18:40 | 59.40666 | 17.41220 | 11651 ft | 321 kts | 229° |
| 2026-05-04 18:40 | 59.39101 | 17.38062 | 12292 ft | 323 kts | 229° |
| 2026-05-04 18:40 | 59.37550 | 17.34939 | 12967 ft | 324 kts | 229° |
| 2026-05-04 18:40 | 59.35972 | 17.31760 | 13659 ft | 325 kts | 230° |
| 2026-05-04 18:41 | 59.34392 | 17.28576 | 14337 ft | 326 kts | 230° |
| 2026-05-04 18:41 | 59.32806 | 17.25380 | 15011 ft | 327 kts | 230° |
| 2026-05-04 18:41 | 59.31217 | 17.22185 | 15683 ft | 328 kts | 230° |
| 2026-05-04 18:41 | 59.29619 | 17.18980 | 16340 ft | 330 kts | 230° |
| 2026-05-04 18:42 | 59.28015 | 17.15768 | 16981 ft | 330 kts | 231° |
| 2026-05-04 18:42 | 59.26402 | 17.12543 | 17588 ft | 332 kts | 231° |
| 2026-05-04 18:42 | 59.24780 | 17.09310 | 18168 ft | 333 kts | 231° |
| 2026-05-04 18:42 | 59.23155 | 17.06073 | 18733 ft | 335 kts | 231° |
| 2026-05-04 18:43 | 59.21522 | 17.02817 | 19237 ft | 337 kts | 231° |
| 2026-05-04 18:43 | 59.19780 | 16.99690 | 19707 ft | 343 kts | 226° |
| 2026-05-04 18:43 | 59.17952 | 16.96679 | 20155 ft | 346 kts | 226° |
| 2026-05-04 18:43 | 59.16097 | 16.93662 | 20598 ft | 349 kts | 226° |
| 2026-05-04 18:44 | 59.14227 | 16.90637 | 21023 ft | 351 kts | 226° |
| 2026-05-04 18:44 | 59.12975 | 16.88613 | 21286 ft | 353 kts | 226° |
| 2026-05-04 18:44 | 59.10440 | 16.84507 | 21811 ft | 356 kts | 226° |
| 2026-05-04 18:44 | 59.08534 | 16.81419 | 22189 ft | 358 kts | 226° |
| 2026-05-04 18:45 | 59.06616 | 16.78316 | 22544 ft | 360 kts | 226° |
| 2026-05-04 18:45 | 59.04686 | 16.75202 | 22884 ft | 362 kts | 226° |
| 2026-05-04 18:45 | 59.02739 | 16.72071 | 23215 ft | 364 kts | 226° |
| 2026-05-04 18:45 | 59.00784 | 16.68927 | 23525 ft | 366 kts | 226° |
| 2026-05-04 18:46 | 58.98819 | 16.65768 | 23818 ft | 369 kts | 226° |
| 2026-05-04 18:46 | 58.96838 | 16.62591 | 24132 ft | 371 kts | 226° |
| 2026-05-04 18:46 | 58.94870 | 16.59443 | 24422 ft | 373 kts | 226° |
| 2026-05-04 18:46 | 58.92863 | 16.56242 | 24717 ft | 375 kts | 226° |
| 2026-05-04 18:47 | 58.90844 | 16.53020 | 24994 ft | 377 kts | 226° |
| 2026-05-04 18:47 | 58.88815 | 16.49780 | 25261 ft | 379 kts | 225° |
| 2026-05-04 18:47 | 58.86772 | 16.46526 | 25547 ft | 381 kts | 225° |
| 2026-05-04 18:47 | 58.84717 | 16.43262 | 25823 ft | 384 kts | 225° |
| 2026-05-04 18:48 | 58.82648 | 16.39984 | 26075 ft | 386 kts | 225° |
| 2026-05-04 18:48 | 58.80565 | 16.36690 | 26315 ft | 388 kts | 225° |
| 2026-05-04 18:48 | 58.78467 | 16.33374 | 26551 ft | 391 kts | 225° |
| 2026-05-04 18:48 | 58.76358 | 16.30047 | 26786 ft | 393 kts | 225° |
| 2026-05-04 18:49 | 58.74236 | 16.26705 | 27020 ft | 395 kts | 225° |
| 2026-05-04 18:49 | 58.72102 | 16.23345 | 27252 ft | 397 kts | 225° |
| 2026-05-04 18:49 | 58.69957 | 16.19971 | 27459 ft | 399 kts | 225° |
| 2026-05-04 18:49 | 58.67802 | 16.16592 | 27680 ft | 401 kts | 225° |
| 2026-05-04 18:50 | 58.65633 | 16.13201 | 27889 ft | 403 kts | 225° |
| 2026-05-04 18:50 | 58.63453 | 16.09799 | 28094 ft | 405 kts | 224° |
| 2026-05-04 18:50 | 58.61263 | 16.06383 | 28303 ft | 406 kts | 224° |
| 2026-05-04 18:50 | 58.59059 | 16.02951 | 28517 ft | 408 kts | 224° |
| 2026-05-04 18:51 | 58.56853 | 15.99522 | 28797 ft | 408 kts | 224° |
| 2026-05-04 18:51 | 58.54649 | 15.96105 | 29075 ft | 408 kts | 224° |
| 2026-05-04 18:51 | 58.52446 | 15.92693 | 29348 ft | 407 kts | 224° |
| 2026-05-04 18:51 | 58.50243 | 15.89285 | 29598 ft | 407 kts | 224° |
| 2026-05-04 18:52 | 58.48038 | 15.85879 | 29858 ft | 407 kts | 224° |
| 2026-05-04 18:52 | 58.45859 | 15.82521 | 30118 ft | 407 kts | 224° |
| 2026-05-04 18:52 | 58.43655 | 15.79133 | 30383 ft | 407 kts | 224° |
| 2026-05-04 18:52 | 58.41423 | 15.75704 | 30656 ft | 406 kts | 224° |
| 2026-05-04 18:53 | 58.39221 | 15.72325 | 30928 ft | 405 kts | 224° |
| 2026-05-04 18:53 | 58.37027 | 15.68963 | 31201 ft | 405 kts | 224° |
| 2026-05-04 18:53 | 58.34835 | 15.65608 | 31457 ft | 404 kts | 224° |
| 2026-05-04 18:53 | 58.32669 | 15.62300 | 31714 ft | 404 kts | 224° |
| 2026-05-04 18:54 | 58.30471 | 15.58947 | 31778 ft | 407 kts | 224° |
| 2026-05-04 18:54 | 58.26062 | 15.52240 | 31797 ft | 401 kts | 224° |
| 2026-05-04 18:55 | 58.21742 | 15.45704 | 31812 ft | 395 kts | 224° |
| 2026-05-04 18:55 | 58.15311 | 15.35982 | 31820 ft | 393 kts | 224° |
| 2026-05-04 18:56 | 58.11041 | 15.29568 | 31825 ft | 391 kts | 224° |
| 2026-05-04 18:56 | 58.06792 | 15.23197 | 31826 ft | 391 kts | 224° |
| 2026-05-04 18:57 | 58.02524 | 15.16822 | 31820 ft | 390 kts | 224° |
| 2026-05-04 18:57 | 57.98263 | 15.10478 | 31819 ft | 390 kts | 224° |
| 2026-05-04 18:58 | 57.93982 | 15.04118 | 31820 ft | 394 kts | 223° |
| 2026-05-04 18:58 | 57.89671 | 14.97742 | 31822 ft | 395 kts | 223° |
| 2026-05-04 18:59 | 57.85351 | 14.91373 | 31830 ft | 394 kts | 223° |
| 2026-05-04 18:59 | 57.81036 | 14.85028 | 31836 ft | 394 kts | 223° |
| 2026-05-04 19:00 | 57.76721 | 14.78702 | 31830 ft | 393 kts | 223° |
| 2026-05-04 19:00 | 57.72440 | 14.72449 | 31843 ft | 392 kts | 223° |
| 2026-05-04 19:01 | 57.68140 | 14.66184 | 31859 ft | 392 kts | 223° |
| 2026-05-04 19:01 | 57.63835 | 14.59929 | 31860 ft | 392 kts | 223° |
| 2026-05-04 19:02 | 57.59528 | 14.53697 | 31862 ft | 392 kts | 223° |
| 2026-05-04 19:02 | 57.55219 | 14.47475 | 31864 ft | 391 kts | 223° |
| 2026-05-04 19:03 | 57.50904 | 14.41266 | 31771 ft | 394 kts | 223° |
| 2026-05-04 19:03 | 57.48728 | 14.38140 | 31512 ft | 392 kts | 223° |
| 2026-05-04 19:03 | 57.46582 | 14.35069 | 31261 ft | 388 kts | 223° |
| 2026-05-04 19:04 | 57.44447 | 14.32017 | 31016 ft | 387 kts | 223° |
| 2026-05-04 19:04 | 57.42314 | 14.28968 | 30773 ft | 387 kts | 223° |
| 2026-05-04 19:04 | 57.40902 | 14.26952 | 30599 ft | 387 kts | 223° |
| 2026-05-04 19:04 | 57.38767 | 14.23905 | 30361 ft | 387 kts | 222° |
| 2026-05-04 19:05 | 57.36631 | 14.20863 | 30115 ft | 388 kts | 222° |
| 2026-05-04 19:05 | 57.34486 | 14.17814 | 29867 ft | 389 kts | 222° |
| 2026-05-04 19:05 | 57.31631 | 14.13766 | 29536 ft | 390 kts | 222° |
| 2026-05-04 19:05 | 57.30177 | 14.11709 | 29370 ft | 390 kts | 222° |
| 2026-05-04 19:06 | 57.28016 | 14.08651 | 29122 ft | 392 kts | 222° |
| 2026-05-04 19:06 | 57.25847 | 14.05583 | 28876 ft | 393 kts | 222° |
| 2026-05-04 19:06 | 57.23672 | 14.02519 | 28623 ft | 393 kts | 222° |
| 2026-05-04 19:06 | 57.21491 | 13.99449 | 28378 ft | 396 kts | 222° |
| 2026-05-04 19:07 | 57.19301 | 13.96370 | 28126 ft | 396 kts | 222° |
| 2026-05-04 19:07 | 57.17110 | 13.93297 | 27873 ft | 393 kts | 221° |
| 2026-05-04 19:07 | 57.14962 | 13.90292 | 27621 ft | 383 kts | 222° |
| 2026-05-04 19:07 | 57.12884 | 13.87387 | 27371 ft | 375 kts | 222° |
| 2026-05-04 19:08 | 57.10829 | 13.84513 | 27123 ft | 367 kts | 222° |
| 2026-05-04 19:08 | 57.08815 | 13.81699 | 26869 ft | 360 kts | 222° |
| 2026-05-04 19:08 | 57.06840 | 13.78943 | 26617 ft | 353 kts | 222° |
| 2026-05-04 19:08 | 57.04899 | 13.76240 | 26363 ft | 347 kts | 222° |
| 2026-05-04 19:09 | 57.02992 | 13.73591 | 26110 ft | 341 kts | 222° |
| 2026-05-04 19:09 | 57.01117 | 13.70989 | 25862 ft | 336 kts | 222° |
| 2026-05-04 19:09 | 56.99265 | 13.68420 | 25607 ft | 331 kts | 222° |
| 2026-05-04 19:09 | 56.97437 | 13.65891 | 25348 ft | 327 kts | 222° |
| 2026-05-04 19:10 | 56.95632 | 13.63394 | 25098 ft | 323 kts | 223° |
| 2026-05-04 19:10 | 56.93838 | 13.60912 | 24851 ft | 324 kts | 223° |
| 2026-05-04 19:10 | 56.92030 | 13.58410 | 24605 ft | 327 kts | 223° |
| 2026-05-04 19:10 | 56.90207 | 13.55896 | 24358 ft | 328 kts | 222° |
| 2026-05-04 19:11 | 56.88382 | 13.53388 | 24114 ft | 328 kts | 222° |
| 2026-05-04 19:11 | 56.86562 | 13.50890 | 23866 ft | 327 kts | 222° |
| 2026-05-04 19:11 | 56.84749 | 13.48404 | 23617 ft | 325 kts | 222° |
| 2026-05-04 19:11 | 56.82942 | 13.45927 | 23372 ft | 324 kts | 222° |
| 2026-05-04 19:12 | 56.81144 | 13.43463 | 23119 ft | 323 kts | 222° |
| 2026-05-04 19:12 | 56.77564 | 13.38571 | 22619 ft | 320 kts | 222° |
| 2026-05-04 19:12 | 56.75784 | 13.36145 | 22373 ft | 319 kts | 222° |
| 2026-05-04 19:13 | 56.74009 | 13.33726 | 22119 ft | 318 kts | 222° |
| 2026-05-04 19:13 | 56.72243 | 13.31322 | 21875 ft | 316 kts | 223° |
| 2026-05-04 19:13 | 56.70514 | 13.28963 | 21631 ft | 314 kts | 223° |
| 2026-05-04 19:13 | 56.68770 | 13.26585 | 21380 ft | 313 kts | 222° |
| 2026-05-04 19:14 | 56.67032 | 13.24215 | 21131 ft | 312 kts | 222° |
| 2026-05-04 19:14 | 56.65299 | 13.21855 | 20871 ft | 310 kts | 223° |
| 2026-05-04 19:14 | 56.63584 | 13.19530 | 20539 ft | 305 kts | 223° |
| 2026-05-04 19:14 | 56.61888 | 13.17240 | 20205 ft | 301 kts | 223° |
| 2026-05-04 19:15 | 56.60215 | 13.14985 | 19863 ft | 298 kts | 223° |
| 2026-05-04 19:15 | 56.58557 | 13.12753 | 19536 ft | 295 kts | 223° |
| 2026-05-04 19:15 | 56.56918 | 13.10547 | 19187 ft | 293 kts | 223° |
| 2026-05-04 19:15 | 56.55267 | 13.08320 | 18851 ft | 298 kts | 223° |
| 2026-05-04 19:16 | 56.53598 | 13.06071 | 18501 ft | 300 kts | 223° |
| 2026-05-04 19:16 | 56.51918 | 13.03818 | 18157 ft | 300 kts | 222° |
| 2026-05-04 19:16 | 56.50248 | 13.01586 | 17813 ft | 296 kts | 223° |
| 2026-05-04 19:16 | 56.48596 | 12.99380 | 17468 ft | 293 kts | 222° |
| 2026-05-04 19:17 | 56.46967 | 12.97203 | 17129 ft | 289 kts | 223° |
| 2026-05-04 19:17 | 56.45360 | 12.95056 | 16800 ft | 285 kts | 222° |
| 2026-05-04 19:17 | 56.43775 | 12.92939 | 16471 ft | 281 kts | 222° |
| 2026-05-04 19:17 | 56.42210 | 12.90852 | 16147 ft | 278 kts | 222° |
| 2026-05-04 19:18 | 56.40657 | 12.88777 | 15840 ft | 285 kts | 222° |
| 2026-05-04 19:18 | 56.39052 | 12.86634 | 15508 ft | 289 kts | 222° |
| 2026-05-04 19:18 | 56.37434 | 12.84485 | 15165 ft | 287 kts | 222° |
| 2026-05-04 19:18 | 56.35836 | 12.82372 | 14844 ft | 283 kts | 222° |
| 2026-05-04 19:19 | 56.34257 | 12.80284 | 14524 ft | 279 kts | 222° |
| 2026-05-04 19:19 | 56.32702 | 12.78227 | 14195 ft | 275 kts | 222° |
| 2026-05-04 19:19 | 56.31170 | 12.76200 | 13888 ft | 274 kts | 222° |
| 2026-05-04 19:19 | 56.29624 | 12.74148 | 13637 ft | 274 kts | 222° |
| 2026-05-04 19:20 | 56.28120 | 12.72170 | 13546 ft | 262 kts | 221° |
| 2026-05-04 19:20 | 56.26675 | 12.70269 | 13291 ft | 254 kts | 222° |
| 2026-05-04 19:20 | 56.25256 | 12.68394 | 12814 ft | 253 kts | 222° |
| 2026-05-04 19:20 | 56.23840 | 12.66522 | 12305 ft | 252 kts | 222° |
| 2026-05-04 19:21 | 56.22422 | 12.64654 | 11839 ft | 252 kts | 222° |
| 2026-05-04 19:21 | 56.21011 | 12.62802 | 11374 ft | 250 kts | 222° |
| 2026-05-04 19:21 | 56.19605 | 12.60958 | 10899 ft | 250 kts | 221° |
| 2026-05-04 19:21 | 56.18202 | 12.59115 | 10436 ft | 250 kts | 221° |
| 2026-05-04 19:22 | 56.16646 | 12.57658 | 9914 ft | 260 kts | 200° |
| 2026-05-04 19:22 | 56.14846 | 12.57187 | 9486 ft | 263 kts | 188° |
| 2026-05-04 19:22 | 56.13008 | 12.57238 | 9022 ft | 266 kts | 181° |
| 2026-05-04 19:22 | 56.11187 | 12.57540 | 8536 ft | 267 kts | 178° |
| 2026-05-04 19:23 | 56.09347 | 12.57969 | 8089 ft | 266 kts | 177° |
| 2026-05-04 19:23 | 56.07522 | 12.58459 | 7654 ft | 265 kts | 176° |
| 2026-05-04 19:23 | 56.05707 | 12.58974 | 7228 ft | 263 kts | 175° |
| 2026-05-04 19:23 | 56.03905 | 12.59544 | 6778 ft | 264 kts | 168° |
| 2026-05-04 19:24 | 56.02224 | 12.60912 | 6370 ft | 265 kts | 151° |
| 2026-05-04 19:24 | 56.00761 | 12.62813 | 6045 ft | 257 kts | 143° |
| 2026-05-04 19:24 | 55.99424 | 12.64921 | 5573 ft | 256 kts | 140° |
| 2026-05-04 19:24 | 55.98146 | 12.67135 | 5099 ft | 255 kts | 137° |
| 2026-05-04 19:25 | 55.96910 | 12.69375 | 4672 ft | 250 kts | 136° |
| 2026-05-04 19:25 | 55.95717 | 12.71584 | 4249 ft | 245 kts | 136° |
| 2026-05-04 19:25 | 55.94528 | 12.73800 | 4048 ft | 250 kts | 135° |
| 2026-05-04 19:25 | 55.93334 | 12.76025 | 4009 ft | 244 kts | 135° |
| 2026-05-04 19:26 | 55.92280 | 12.78327 | 3995 ft | 236 kts | 126° |
| 2026-05-04 19:26 | 55.91408 | 12.80763 | 3995 ft | 231 kts | 121° |
| 2026-05-04 19:26 | 55.90634 | 12.83255 | 3993 ft | 228 kts | 118° |
| 2026-05-04 19:26 | 55.89911 | 12.85770 | 3994 ft | 227 kts | 117° |
| 2026-05-04 19:27 | 55.89219 | 12.88288 | 3984 ft | 226 kts | 116° |
| 2026-05-04 19:27 | 55.88550 | 12.90773 | 3982 ft | 225 kts | 116° |
| 2026-05-04 19:27 | 55.87874 | 12.93291 | 3986 ft | 225 kts | 118° |
| 2026-05-04 19:27 | 55.87044 | 12.95661 | 3916 ft | 231 kts | 127° |
| 2026-05-04 19:28 | 55.86000 | 12.97828 | 3769 ft | 225 kts | 146° |
| 2026-05-04 19:28 | 55.84612 | 12.98912 | 3450 ft | 215 kts | 176° |
| 2026-05-04 19:28 | 55.83169 | 12.98638 | 3077 ft | 206 kts | 207° |
| 2026-05-04 19:28 | 55.82034 | 12.97257 | 3025 ft | 195 kts | 226° |
| 2026-05-04 19:29 | 55.81005 | 12.95631 | 3006 ft | 200 kts | 226° |
| 2026-05-04 19:29 | 55.79959 | 12.93979 | 3002 ft | 203 kts | 226° |
| 2026-05-04 19:29 | 55.78893 | 12.92300 | 3001 ft | 205 kts | 226° |
| 2026-05-04 19:29 | 55.77823 | 12.90620 | 2993 ft | 205 kts | 226° |
| 2026-05-04 19:30 | 55.76751 | 12.88939 | 2988 ft | 206 kts | 226° |
| 2026-05-04 19:30 | 55.75678 | 12.87257 | 2991 ft | 205 kts | 226° |
| 2026-05-04 19:30 | 55.74609 | 12.85581 | 2990 ft | 205 kts | 226° |
| 2026-05-04 19:30 | 55.73549 | 12.83923 | 2844 ft | 201 kts | 226° |
| 2026-05-04 19:31 | 55.72516 | 12.82310 | 2584 ft | 192 kts | 225° |
| 2026-05-04 19:31 | 55.71542 | 12.80789 | 2339 ft | 181 kts | 225° |
| 2026-05-04 19:31 | 55.70624 | 12.79355 | 2109 ft | 170 kts | 225° |
| 2026-05-04 19:31 | 55.69763 | 12.78009 | 1903 ft | 162 kts | 225° |
| 2026-05-04 19:32 | 55.68918 | 12.76688 | 1688 ft | 161 kts | 225° |
| 2026-05-04 19:32 | 55.68084 | 12.75388 | 1466 ft | 159 kts | 225° |
| 2026-05-04 19:32 | 55.67254 | 12.74094 | 1262 ft | 158 kts | 224° |
| 2026-05-04 19:32 | 55.66451 | 12.72842 | 1072 ft | 149 kts | 224° |
| 2026-05-04 19:33 | 55.65688 | 12.71654 | 853 ft | 146 kts | 224° |
| 2026-05-04 19:33 | 55.64922 | 12.70461 | 668 ft | 147 kts | 224° |
| 2026-05-04 19:33 | 55.64156 | 12.69272 | 468 ft | 146 kts | 224° |
| 2026-05-04 19:33 | 55.63393 | 12.68086 | 279 ft | 145 kts | 224° |
| 2026-05-04 19:34 | 55.62647 | 12.66926 | 87 ft | 141 kts | 225° |
| 2026-05-04 19:34 | 55.61955 | 12.65838 | 28 ft | 114 kts | 221° |
| 2026-05-04 19:34 | 55.61526 | 12.65179 | 23 ft | 51 kts | 221° |
| 2026-05-04 19:34 | 55.61295 | 12.64759 | 29 ft | 37 kts | 237° |
| 2026-05-04 19:35 | 55.61224 | 12.64446 | 26 ft | 22 kts | 251° |
| 2026-05-04 19:35 | 55.61191 | 12.64276 | 25 ft | 6 kts | 255° |
| 2026-05-04 19:35 | 55.61190 | 12.64200 | 23 ft | 6 kts | 282° |
| 2026-05-04 19:35 | 55.61216 | 12.64132 | 23 ft | 7 kts | 321° |
| 2026-05-04 19:36 | 55.61265 | 12.64110 | 23 ft | 8 kts | 5° |
| 2026-05-04 19:36 | 55.61319 | 12.64154 | 23 ft | 10 kts | 31° |
| 2026-05-04 19:36 | 55.61380 | 12.64223 | 23 ft | 11 kts | 33° |
| 2026-05-04 19:36 | 55.61448 | 12.64302 | 24 ft | 12 kts | 33° |
| 2026-05-04 19:37 | 55.61521 | 12.64386 | 23 ft | 13 kts | 33° |
| 2026-05-04 19:37 | 55.61602 | 12.64480 | 23 ft | 14 kts | 33° |
| 2026-05-04 19:37 | 55.61691 | 12.64561 | 23 ft | 15 kts | 11° |
| 2026-05-04 19:37 | 55.61791 | 12.64544 | 26 ft | 13 kts | 349° |
| 2026-05-04 19:38 | 55.61862 | 12.64520 | 23 ft | 7 kts | 349° |
| 2026-05-04 19:38 | 55.61885 | 12.64513 | 23 ft | 0 kts | 349° |
| 2026-05-04 19:40 | 55.61912 | 12.64504 | 23 ft | 9 kts | 349° |
| 2026-05-04 19:40 | 55.61979 | 12.64482 | 23 ft | 11 kts | 350° |
| 2026-05-04 19:40 | 55.62061 | 12.64456 | 25 ft | 13 kts | 349° |
| 2026-05-04 19:40 | 55.62155 | 12.64424 | 22 ft | 14 kts | 349° |
| 2026-05-04 19:41 | 55.62238 | 12.64372 | 22 ft | 13 kts | 323° |
| 2026-05-04 19:41 | 55.62298 | 12.64236 | 21 ft | 15 kts | 303° |
| 2026-05-04 19:41 | 55.62359 | 12.64069 | 23 ft | 16 kts | 303° |
| 2026-05-04 19:41 | 55.62423 | 12.63899 | 21 ft | 17 kts | 303° |
| 2026-05-04 19:42 | 55.62487 | 12.63727 | 27 ft | 17 kts | 303° |
| 2026-05-04 19:42 | 55.62539 | 12.63586 | 23 ft | 12 kts | 303° |
| 2026-05-04 19:42 | 55.62576 | 12.63526 | 25 ft | 4 kts | 330° |
| 2026-05-04 19:42 | 55.62596 | 12.63512 | 23 ft | 0 kts | 343° |
| 2026-05-04 19:43 | 55.62600 | 12.63510 | 21 ft | 1 kts | 345° |
| 2026-05-04 19:43 | 55.62612 | 12.63507 | 22 ft | 2 kts | 351° |
| 2026-05-04 19:43 | 55.62624 | 12.63503 | 23 ft | 3 kts | 351° |
| 2026-05-04 19:43 | 55.62657 | 12.63485 | 22 ft | 6 kts | 335° |
| 2026-05-04 19:44 | 55.62690 | 12.63427 | 24 ft | 8 kts | 306° |
| 2026-05-04 19:44 | 55.62722 | 12.63349 | 24 ft | 8 kts | 305° |
| 2026-05-04 19:44 | 55.62746 | 12.63311 | 22 ft | 1 kts | 345° |
| 2026-05-04 19:44 | 55.62765 | 12.63319 | 23 ft | 5 kts | 22° |
| 2026-05-04 19:45 | 55.62803 | 12.63355 | 26 ft | 7 kts | 32° |
| 2026-05-04 19:45 | 55.62839 | 12.63401 | 24 ft | 5 kts | 45° |
| 2026-05-04 19:45 | 55.62858 | 12.63447 | 27 ft | 5 kts | 48° |
| 2026-05-04 19:45 | 55.62879 | 12.63484 | 26 ft | 3 kts | 44° |
| 2026-05-04 19:46 | 55.62893 | 12.63507 | 23 ft | 1 kts | 42° |
| 2026-05-04 19:46 | 55.62900 | 12.63517 | 23 ft | 1 kts | 41° |
| 2026-05-04 19:46 | 55.62903 | 12.63522 | 23 ft | 0 kts | 41° |
| 2026-05-04 19:46 | 55.62903 | 12.63523 | 24 ft | 0 kts | 41° |